sensor_id;sensor_type;location;lat;lon;timestamp;P1;P2;P0
65383;PMS5003;51986;52.788;41.368;2022-08-21T00:00:50;29.00;25.00;21.00
65383;PMS5003;51986;52.788;41.368;2022-08-21T00:03:23;32.75;28.25;23.00
65383;PMS5003;51986;52.788;41.368;2022-08-21T00:05:50;30.00;27.00;22.00
65383;PMS5003;51986;52.788;41.368;2022-08-21T00:08:33;30.00;26.00;21.00
65383;PMS5003;51986;52.788;41.368;2022-08-21T00:11:01;29.00;25.00;21.00
65383;PMS5003;51986;52.788;41.368;2022-08-21T00:13:29;31.25;26.50;22.00
65383;PMS5003;51986;52.788;41.368;2022-08-21T00:15:56;30.00;26.00;21.00
65383;PMS5003;51986;52.788;41.368;2022-08-21T00:18:22;28.00;25.00;20.00
65383;PMS5003;51986;52.788;41.368;2022-08-21T00:20:49;29.75;26.00;21.00
65383;PMS5003;51986;52.788;41.368;2022-08-21T00:23:19;28.00;25.00;21.00
65383;PMS5003;51986;52.788;41.368;2022-08-21T00:25:46;26.00;24.00;20.00
65383;PMS5003;51986;52.788;41.368;2022-08-21T00:28:13;26.00;23.00;20.00
65383;PMS5003;51986;52.788;41.368;2022-08-21T00:30:41;26.00;23.25;20.00
65383;PMS5003;51986;52.788;41.368;2022-08-21T00:33:10;30.25;26.75;21.25
65383;PMS5003;51986;52.788;41.368;2022-08-21T00:35:38;31.50;27.00;21.75
65383;PMS5003;51986;52.788;41.368;2022-08-21T00:38:07;31.00;27.00;22.00
65383;PMS5003;51986;52.788;41.368;2022-08-21T00:40:37;31.00;27.00;22.00
65383;PMS5003;51986;52.788;41.368;2022-08-21T00:43:20;30.00;26.00;21.50
65383;PMS5003;51986;52.788;41.368;2022-08-21T00:45:51;30.00;26.00;22.00
65383;PMS5003;51986;52.788;41.368;2022-08-21T00:48:18;29.00;26.00;21.50
65383;PMS5003;51986;52.788;41.368;2022-08-21T00:50:50;31.00;27.00;22.00
65383;PMS5003;51986;52.788;41.368;2022-08-21T00:53:23;31.75;27.00;22.00
65383;PMS5003;51986;52.788;41.368;2022-08-21T00:55:51;33.00;28.00;22.00
65383;PMS5003;51986;52.788;41.368;2022-08-21T00:58:22;31.00;26.00;22.00
65383;PMS5003;51986;52.788;41.368;2022-08-21T01:00:51;28.00;25.00;21.00
65383;PMS5003;51986;52.788;41.368;2022-08-21T01:03:21;28.25;25.25;21.00
65383;PMS5003;51986;52.788;41.368;2022-08-21T01:05:50;31.00;27.00;22.00
65383;PMS5003;51986;52.788;41.368;2022-08-21T01:08:18;30.00;26.00;21.00
65383;PMS5003;51986;52.788;41.368;2022-08-21T01:10:47;28.75;25.50;21.50
65383;PMS5003;51986;52.788;41.368;2022-08-21T01:13:24;28.00;25.00;21.00
65383;PMS5003;51986;52.788;41.368;2022-08-21T01:15:54;28.00;25.00;21.00
65383;PMS5003;51986;52.788;41.368;2022-08-21T01:18:23;28.00;25.00;21.00
65383;PMS5003;51986;52.788;41.368;2022-08-21T01:20:58;30.00;26.00;22.00
65383;PMS5003;51986;52.788;41.368;2022-08-21T01:23:30;31.00;26.50;22.00
65383;PMS5003;51986;52.788;41.368;2022-08-21T01:25:57;29.00;25.50;20.00
65383;PMS5003;51986;52.788;41.368;2022-08-21T01:28:24;27.00;25.00;20.50
65383;PMS5003;51986;52.788;41.368;2022-08-21T01:30:54;29.00;26.00;21.00
65383;PMS5003;51986;52.788;41.368;2022-08-21T01:33:22;31.00;27.00;22.00
65383;PMS5003;51986;52.788;41.368;2022-08-21T01:35:51;30.75;26.75;22.00
65383;PMS5003;51986;52.788;41.368;2022-08-21T01:38:18;29.75;26.00;22.00
65383;PMS5003;51986;52.788;41.368;2022-08-21T01:40:45;28.50;26.00;21.00
65383;PMS5003;51986;52.788;41.368;2022-08-21T01:43:12;28.00;25.00;20.00
65383;PMS5003;51986;52.788;41.368;2022-08-21T01:45:44;30.00;26.00;22.00
65383;PMS5003;51986;52.788;41.368;2022-08-21T01:48:11;28.50;26.00;21.00
65383;PMS5003;51986;52.788;41.368;2022-08-21T01:50:38;29.75;26.00;21.00
65383;PMS5003;51986;52.788;41.368;2022-08-21T01:53:05;28.50;25.50;21.00
65383;PMS5003;51986;52.788;41.368;2022-08-21T01:55:32;26.00;24.00;20.00
65383;PMS5003;51986;52.788;41.368;2022-08-21T01:57:59;28.00;25.00;20.00
65383;PMS5003;51986;52.788;41.368;2022-08-21T02:00:27;30.00;26.00;21.00
65383;PMS5003;51986;52.788;41.368;2022-08-21T02:02:54;29.00;25.00;20.25
65383;PMS5003;51986;52.788;41.368;2022-08-21T02:05:21;28.25;25.00;21.00
65383;PMS5003;51986;52.788;41.368;2022-08-21T02:07:49;27.00;25.00;20.00
65383;PMS5003;51986;52.788;41.368;2022-08-21T02:16:10;25.50;23.00;20.00
65383;PMS5003;51986;52.788;41.368;2022-08-21T02:19:01;28.75;26.00;21.50
65383;PMS5003;51986;52.788;41.368;2022-08-21T02:21:28;30.00;26.00;22.00
65383;PMS5003;51986;52.788;41.368;2022-08-21T02:23:55;29.50;26.00;21.00
65383;PMS5003;51986;52.788;41.368;2022-08-21T02:26:22;29.50;26.00;21.50
65383;PMS5003;51986;52.788;41.368;2022-08-21T02:28:49;28.00;25.00;21.00
65383;PMS5003;51986;52.788;41.368;2022-08-21T02:31:16;28.00;25.00;21.00
65383;PMS5003;51986;52.788;41.368;2022-08-21T02:33:43;30.25;26.25;22.00
65383;PMS5003;51986;52.788;41.368;2022-08-21T02:36:10;30.00;26.00;22.00
65383;PMS5003;51986;52.788;41.368;2022-08-21T02:38:39;28.00;25.00;21.00
65383;PMS5003;51986;52.788;41.368;2022-08-21T02:41:09;31.00;27.00;22.00
65383;PMS5003;51986;52.788;41.368;2022-08-21T02:43:39;31.50;27.00;22.00
65383;PMS5003;51986;52.788;41.368;2022-08-21T02:46:08;32.00;27.00;22.00
65383;PMS5003;51986;52.788;41.368;2022-08-21T02:48:37;30.00;26.00;21.00
65383;PMS5003;51986;52.788;41.368;2022-08-21T02:51:16;30.50;26.50;21.50
65383;PMS5003;51986;52.788;41.368;2022-08-21T02:53:45;29.50;26.00;21.00
65383;PMS5003;51986;52.788;41.368;2022-08-21T02:56:17;29.00;26.00;21.00
65383;PMS5003;51986;52.788;41.368;2022-08-21T02:58:47;28.00;25.00;21.00
65383;PMS5003;51986;52.788;41.368;2022-08-21T03:01:16;30.00;26.00;21.75
65383;PMS5003;51986;52.788;41.368;2022-08-21T03:03:45;30.00;26.00;21.00
65383;PMS5003;51986;52.788;41.368;2022-08-21T03:06:14;29.00;26.00;21.00
65383;PMS5003;51986;52.788;41.368;2022-08-21T03:08:42;29.00;26.00;20.50
65383;PMS5003;51986;52.788;41.368;2022-08-21T03:11:10;31.00;26.25;22.00
65383;PMS5003;51986;52.788;41.368;2022-08-21T03:13:39;30.00;26.00;21.00
65383;PMS5003;51986;52.788;41.368;2022-08-21T03:16:06;29.50;26.50;22.00
65383;PMS5003;51986;52.788;41.368;2022-08-21T03:18:35;30.00;27.00;22.00
65383;PMS5003;51986;52.788;41.368;2022-08-21T03:21:03;31.00;27.00;22.00
65383;PMS5003;51986;52.788;41.368;2022-08-21T03:23:31;31.75;28.00;22.00
65383;PMS5003;51986;52.788;41.368;2022-08-21T03:25:59;32.50;28.25;23.00
65383;PMS5003;51986;52.788;41.368;2022-08-21T03:28:26;32.25;28.00;22.50
65383;PMS5003;51986;52.788;41.368;2022-08-21T03:30:53;31.00;27.00;22.00
65383;PMS5003;51986;52.788;41.368;2022-08-21T03:33:21;30.00;26.00;22.00
65383;PMS5003;51986;52.788;41.368;2022-08-21T03:35:54;33.00;27.00;22.00
65383;PMS5003;51986;52.788;41.368;2022-08-21T03:38:28;31.00;27.00;21.00
65383;PMS5003;51986;52.788;41.368;2022-08-21T03:40:57;30.00;27.00;21.00
65383;PMS5003;51986;52.788;41.368;2022-08-21T03:43:25;28.50;25.50;21.25
65383;PMS5003;51986;52.788;41.368;2022-08-21T03:45:56;30.00;26.00;21.50
65383;PMS5003;51986;52.788;41.368;2022-08-21T03:48:23;30.50;27.00;22.00
65383;PMS5003;51986;52.788;41.368;2022-08-21T03:50:51;31.25;28.00;22.50
65383;PMS5003;51986;52.788;41.368;2022-08-21T03:53:19;32.00;28.00;22.00
65383;PMS5003;51986;52.788;41.368;2022-08-21T03:55:47;32.25;28.00;22.00
65383;PMS5003;51986;52.788;41.368;2022-08-21T03:58:16;32.50;27.00;23.00
65383;PMS5003;51986;52.788;41.368;2022-08-21T04:00:46;31.00;26.00;22.00
65383;PMS5003;51986;52.788;41.368;2022-08-21T04:03:15;30.50;26.00;22.00
65383;PMS5003;51986;52.788;41.368;2022-08-21T04:05:43;31.25;27.50;22.00
65383;PMS5003;51986;52.788;41.368;2022-08-21T04:08:09;32.00;28.00;23.00
65383;PMS5003;51986;52.788;41.368;2022-08-21T04:10:37;33.00;28.75;23.00
65383;PMS5003;51986;52.788;41.368;2022-08-21T04:13:06;32.00;28.00;22.50
65383;PMS5003;51986;52.788;41.368;2022-08-21T04:15:34;33.00;28.00;23.00
65383;PMS5003;51986;52.788;41.368;2022-08-21T04:18:02;33.00;29.00;23.00
65383;PMS5003;51986;52.788;41.368;2022-08-21T04:20:30;33.75;29.00;23.50
65383;PMS5003;51986;52.788;41.368;2022-08-21T04:22:59;33.75;29.00;23.00
65383;PMS5003;51986;52.788;41.368;2022-08-21T04:25:26;33.00;29.00;23.50
65383;PMS5003;51986;52.788;41.368;2022-08-21T04:27:52;33.00;29.00;24.00
65383;PMS5003;51986;52.788;41.368;2022-08-21T04:30:20;33.00;29.00;23.00
65383;PMS5003;51986;52.788;41.368;2022-08-21T04:32:57;33.75;29.00;23.50
65383;PMS5003;51986;52.788;41.368;2022-08-21T04:35:27;34.00;29.00;24.00
65383;PMS5003;51986;52.788;41.368;2022-08-21T04:38:06;34.00;29.00;23.50
65383;PMS5003;51986;52.788;41.368;2022-08-21T04:40:41;36.00;31.00;25.00
65383;PMS5003;51986;52.788;41.368;2022-08-21T04:43:18;35.00;30.00;24.00
65383;PMS5003;51986;52.788;41.368;2022-08-21T04:45:48;35.00;30.00;24.00
65383;PMS5003;51986;52.788;41.368;2022-08-21T04:48:16;35.00;29.50;24.00
65383;PMS5003;51986;52.788;41.368;2022-08-21T04:50:47;35.00;30.00;24.00
65383;PMS5003;51986;52.788;41.368;2022-08-21T04:53:30;35.00;30.00;24.00
65383;PMS5003;51986;52.788;41.368;2022-08-21T04:56:04;35.00;30.00;25.00
65383;PMS5003;51986;52.788;41.368;2022-08-21T04:58:35;36.00;30.50;24.00
65383;PMS5003;51986;52.788;41.368;2022-08-21T05:01:04;36.00;31.00;24.00
65383;PMS5003;51986;52.788;41.368;2022-08-21T05:03:35;35.00;30.00;24.00
65383;PMS5003;51986;52.788;41.368;2022-08-21T05:06:05;35.00;30.00;24.00
65383;PMS5003;51986;52.788;41.368;2022-08-21T05:08:35;35.00;30.00;24.00
65383;PMS5003;51986;52.788;41.368;2022-08-21T05:11:04;35.00;30.00;24.00
65383;PMS5003;51986;52.788;41.368;2022-08-21T05:13:32;36.50;30.00;24.50
65383;PMS5003;51986;52.788;41.368;2022-08-21T05:15:59;36.50;30.00;24.00
65383;PMS5003;51986;52.788;41.368;2022-08-21T05:18:26;36.00;30.00;24.50
65383;PMS5003;51986;52.788;41.368;2022-08-21T05:20:55;36.25;30.50;25.00
65383;PMS5003;51986;52.788;41.368;2022-08-21T05:23:27;35.00;30.00;24.00
65383;PMS5003;51986;52.788;41.368;2022-08-21T05:25:54;35.50;30.50;24.00
65383;PMS5003;51986;52.788;41.368;2022-08-21T05:28:21;36.00;30.00;24.00
65383;PMS5003;51986;52.788;41.368;2022-08-21T05:30:48;34.25;29.00;24.00
65383;PMS5003;51986;52.788;41.368;2022-08-21T05:33:15;34.25;30.00;24.00
65383;PMS5003;51986;52.788;41.368;2022-08-21T05:35:42;36.00;31.00;25.00
65383;PMS5003;51986;52.788;41.368;2022-08-21T05:38:09;35.50;30.00;25.00
65383;PMS5003;51986;52.788;41.368;2022-08-21T05:40:46;35.00;30.00;25.00
65383;PMS5003;51986;52.788;41.368;2022-08-21T05:43:14;36.00;30.50;24.00
65383;PMS5003;51986;52.788;41.368;2022-08-21T05:45:41;36.25;32.00;25.00
65383;PMS5003;51986;52.788;41.368;2022-08-21T05:48:11;36.00;31.00;25.00
65383;PMS5003;51986;52.788;41.368;2022-08-21T05:50:48;36.00;31.00;25.00
65383;PMS5003;51986;52.788;41.368;2022-08-21T05:53:19;35.00;30.00;25.00
65383;PMS5003;51986;52.788;41.368;2022-08-21T05:55:47;35.00;31.00;25.00
65383;PMS5003;51986;52.788;41.368;2022-08-21T05:58:15;36.00;31.00;25.00
65383;PMS5003;51986;52.788;41.368;2022-08-21T06:00:47;38.00;32.75;26.00
65383;PMS5003;51986;52.788;41.368;2022-08-21T06:03:21;36.50;31.00;26.00
65383;PMS5003;51986;52.788;41.368;2022-08-21T06:05:50;38.50;33.00;26.25
65383;PMS5003;51986;52.788;41.368;2022-08-21T06:08:18;38.00;33.00;26.25
65383;PMS5003;51986;52.788;41.368;2022-08-21T06:10:46;38.00;33.00;26.00
65383;PMS5003;51986;52.788;41.368;2022-08-21T06:16:08;37.00;30.50;25.00
65383;PMS5003;51986;52.788;41.368;2022-08-21T06:18:42;37.00;31.50;25.75
65383;PMS5003;51986;52.788;41.368;2022-08-21T06:21:10;36.25;31.25;26.00
65383;PMS5003;51986;52.788;41.368;2022-08-21T06:23:38;37.00;31.50;25.50
65383;PMS5003;51986;52.788;41.368;2022-08-21T06:26:06;36.50;31.00;26.00
65383;PMS5003;51986;52.788;41.368;2022-08-21T06:28:34;36.00;30.00;25.00
65383;PMS5003;51986;52.788;41.368;2022-08-21T06:31:16;36.00;31.00;25.50
65383;PMS5003;51986;52.788;41.368;2022-08-21T06:33:45;37.75;31.25;26.00
65383;PMS5003;51986;52.788;41.368;2022-08-21T06:36:12;37.75;32.75;26.00
65383;PMS5003;51986;52.788;41.368;2022-08-21T06:38:44;38.00;33.00;26.00
65383;PMS5003;51986;52.788;41.368;2022-08-21T06:41:18;39.00;33.00;26.25
65383;PMS5003;51986;52.788;41.368;2022-08-21T06:43:52;36.50;31.00;25.00
65383;PMS5003;51986;52.788;41.368;2022-08-21T06:46:20;37.00;31.25;25.50
65383;PMS5003;51986;52.788;41.368;2022-08-21T06:48:49;36.50;31.00;26.00
65383;PMS5003;51986;52.788;41.368;2022-08-21T06:51:16;37.75;32.50;26.00
65383;PMS5003;51986;52.788;41.368;2022-08-21T06:53:44;38.00;33.00;26.00
65383;PMS5003;51986;52.788;41.368;2022-08-21T06:56:37;37.00;32.00;26.00
65383;PMS5003;51986;52.788;41.368;2022-08-21T06:59:04;37.75;32.00;26.75
65383;PMS5003;51986;52.788;41.368;2022-08-21T07:01:31;38.00;32.00;26.00
65383;PMS5003;51986;52.788;41.368;2022-08-21T07:03:59;38.00;33.00;26.00
65383;PMS5003;51986;52.788;41.368;2022-08-21T07:06:26;38.00;32.00;26.00
65383;PMS5003;51986;52.788;41.368;2022-08-21T07:08:54;38.75;33.00;27.00
65383;PMS5003;51986;52.788;41.368;2022-08-21T07:11:24;37.50;32.50;27.00
65383;PMS5003;51986;52.788;41.368;2022-08-21T07:13:52;38.50;33.00;26.00
65383;PMS5003;51986;52.788;41.368;2022-08-21T07:16:27;38.00;32.00;26.00
65383;PMS5003;51986;52.788;41.368;2022-08-21T07:18:54;40.25;34.75;28.00
65383;PMS5003;51986;52.788;41.368;2022-08-21T07:21:21;40.00;34.00;27.50
65383;PMS5003;51986;52.788;41.368;2022-08-21T07:23:52;40.25;34.25;27.75
65383;PMS5003;51986;52.788;41.368;2022-08-21T07:26:22;41.00;35.00;28.00
65383;PMS5003;51986;52.788;41.368;2022-08-21T07:28:53;41.00;34.00;27.00
65383;PMS5003;51986;52.788;41.368;2022-08-21T07:31:21;40.75;34.00;26.00
65383;PMS5003;51986;52.788;41.368;2022-08-21T07:33:53;41.50;34.75;27.75
65383;PMS5003;51986;52.788;41.368;2022-08-21T07:36:20;42.00;35.00;28.50
65383;PMS5003;51986;52.788;41.368;2022-08-21T07:38:47;40.00;34.00;28.00
65383;PMS5003;51986;52.788;41.368;2022-08-21T07:41:25;40.50;34.00;26.00
65383;PMS5003;51986;52.788;41.368;2022-08-21T07:43:53;40.00;33.50;26.00
65383;PMS5003;51986;52.788;41.368;2022-08-21T07:46:24;39.00;33.00;26.25
65383;PMS5003;51986;52.788;41.368;2022-08-21T07:48:52;39.00;33.00;27.00
65383;PMS5003;51986;52.788;41.368;2022-08-21T07:51:22;38.00;32.00;26.00
65383;PMS5003;51986;52.788;41.368;2022-08-21T07:53:53;38.00;33.00;27.00
65383;PMS5003;51986;52.788;41.368;2022-08-21T07:56:21;39.00;33.25;27.50
65383;PMS5003;51986;52.788;41.368;2022-08-21T07:58:51;39.75;34.00;27.75
65383;PMS5003;51986;52.788;41.368;2022-08-21T08:01:20;40.00;34.00;28.00
65383;PMS5003;51986;52.788;41.368;2022-08-21T08:03:47;40.00;34.00;28.00
65383;PMS5003;51986;52.788;41.368;2022-08-21T08:06:16;39.50;34.00;27.50
65383;PMS5003;51986;52.788;41.368;2022-08-21T08:08:46;38.00;33.00;26.00
65383;PMS5003;51986;52.788;41.368;2022-08-21T08:11:13;39.00;33.00;26.00
65383;PMS5003;51986;52.788;41.368;2022-08-21T08:13:44;39.00;33.00;26.75
65383;PMS5003;51986;52.788;41.368;2022-08-21T08:16:14;40.75;34.00;28.25
65383;PMS5003;51986;52.788;41.368;2022-08-21T08:18:45;41.00;34.75;29.00
65383;PMS5003;51986;52.788;41.368;2022-08-21T08:21:12;41.00;34.00;28.00
65383;PMS5003;51986;52.788;41.368;2022-08-21T08:23:42;40.00;34.00;27.00
65383;PMS5003;51986;52.788;41.368;2022-08-21T08:26:11;40.00;34.00;28.00
65383;PMS5003;51986;52.788;41.368;2022-08-21T08:28:38;39.00;33.50;28.00
65383;PMS5003;51986;52.788;41.368;2022-08-21T08:31:13;39.25;33.25;28.00
65383;PMS5003;51986;52.788;41.368;2022-08-21T08:33:40;39.00;34.00;27.00
65383;PMS5003;51986;52.788;41.368;2022-08-21T08:36:12;39.00;33.00;27.00
65383;PMS5003;51986;52.788;41.368;2022-08-21T08:38:41;38.50;33.00;26.50
65383;PMS5003;51986;52.788;41.368;2022-08-21T08:41:19;39.75;34.00;28.00
65383;PMS5003;51986;52.788;41.368;2022-08-21T08:43:51;39.50;34.00;27.50
65383;PMS5003;51986;52.788;41.368;2022-08-21T08:47:06;40.75;34.00;28.00
65383;PMS5003;51986;52.788;41.368;2022-08-21T08:51:53;40.00;34.00;28.00
65383;PMS5003;51986;52.788;41.368;2022-08-21T08:54:43;40.00;34.00;28.00
65383;PMS5003;51986;52.788;41.368;2022-08-21T08:57:19;40.50;34.50;27.75
65383;PMS5003;51986;52.788;41.368;2022-08-21T08:59:55;41.00;33.50;27.00
65383;PMS5003;51986;52.788;41.368;2022-08-21T09:02:25;40.00;34.00;27.00
65383;PMS5003;51986;52.788;41.368;2022-08-21T09:04:52;38.00;32.00;27.00
65383;PMS5003;51986;52.788;41.368;2022-08-21T09:07:38;38.00;32.75;26.50
65383;PMS5003;51986;52.788;41.368;2022-08-21T09:12:45;39.00;34.00;27.00
65383;PMS5003;51986;52.788;41.368;2022-08-21T09:18:32;39.00;34.00;27.00
65383;PMS5003;51986;52.788;41.368;2022-08-21T09:21:23;39.00;33.25;27.00
65383;PMS5003;51986;52.788;41.368;2022-08-21T09:27:08;39.00;32.75;27.00
65383;PMS5003;51986;52.788;41.368;2022-08-21T09:29:41;39.50;33.50;27.00
65383;PMS5003;51986;52.788;41.368;2022-08-21T09:32:17;39.50;33.00;27.00
65383;PMS5003;51986;52.788;41.368;2022-08-21T09:35:13;38.50;33.00;26.50
65383;PMS5003;51986;52.788;41.368;2022-08-21T09:37:52;39.50;33.50;27.75
65383;PMS5003;51986;52.788;41.368;2022-08-21T09:42:54;42.50;36.50;30.50
65383;PMS5003;51986;52.788;41.368;2022-08-21T09:45:24;41.50;35.00;30.00
65383;PMS5003;51986;52.788;41.368;2022-08-21T09:48:13;41.00;35.00;29.00
65383;PMS5003;51986;52.788;41.368;2022-08-21T09:50:42;39.00;33.00;27.00
65383;PMS5003;51986;52.788;41.368;2022-08-21T09:55:55;39.00;33.00;26.50
65383;PMS5003;51986;52.788;41.368;2022-08-21T09:58:34;41.00;34.00;28.00
65383;PMS5003;51986;52.788;41.368;2022-08-21T10:01:04;41.00;34.00;28.00
65383;PMS5003;51986;52.788;41.368;2022-08-21T10:03:32;41.00;35.00;27.00
65383;PMS5003;51986;52.788;41.368;2022-08-21T10:06:01;41.00;34.50;28.75
65383;PMS5003;51986;52.788;41.368;2022-08-21T10:08:35;40.00;35.00;28.00
65383;PMS5003;51986;52.788;41.368;2022-08-21T10:22:00;41.00;35.00;28.00
65383;PMS5003;51986;52.788;41.368;2022-08-21T10:24:44;42.00;35.50;29.00
65383;PMS5003;51986;52.788;41.368;2022-08-21T10:36:06;40.00;34.00;27.00
65383;PMS5003;51986;52.788;41.368;2022-08-21T10:44:47;40.00;34.00;27.50
65383;PMS5003;51986;52.788;41.368;2022-08-21T10:53:28;41.50;35.00;28.00
65383;PMS5003;51986;52.788;41.368;2022-08-21T10:56:18;42.00;35.00;29.00
65383;PMS5003;51986;52.788;41.368;2022-08-21T11:01:28;41.00;35.00;28.00
65383;PMS5003;51986;52.788;41.368;2022-08-21T11:04:25;40.00;34.00;27.00
65383;PMS5003;51986;52.788;41.368;2022-08-21T11:10:14;42.00;36.00;28.50
65383;PMS5003;51986;52.788;41.368;2022-08-21T11:12:54;42.00;36.00;28.00
65383;PMS5003;51986;52.788;41.368;2022-08-21T11:18:04;43.50;35.50;29.25
65383;PMS5003;51986;52.788;41.368;2022-08-21T11:20:43;42.50;36.00;30.00
65383;PMS5003;51986;52.788;41.368;2022-08-21T11:23:22;43.00;36.00;29.00
65383;PMS5003;51986;52.788;41.368;2022-08-21T11:25:58;42.00;35.00;29.75
65383;PMS5003;51986;52.788;41.368;2022-08-21T11:28:41;42.75;35.50;30.00
65383;PMS5003;51986;52.788;41.368;2022-08-21T11:34:10;42.00;35.00;29.00
65383;PMS5003;51986;52.788;41.368;2022-08-21T11:43:14;41.00;35.00;28.00
65383;PMS5003;51986;52.788;41.368;2022-08-21T11:45:52;40.00;33.50;27.00
65383;PMS5003;51986;52.788;41.368;2022-08-21T11:51:41;39.00;33.00;26.00
65383;PMS5003;51986;52.788;41.368;2022-08-21T11:54:37;41.00;34.50;28.00
65383;PMS5003;51986;52.788;41.368;2022-08-21T12:00:23;42.00;35.00;29.50
65383;PMS5003;51986;52.788;41.368;2022-08-21T12:03:08;42.00;35.00;29.00
65383;PMS5003;51986;52.788;41.368;2022-08-21T12:05:42;40.00;34.00;27.00
65383;PMS5003;51986;52.788;41.368;2022-08-21T12:08:28;41.00;34.00;27.00
65383;PMS5003;51986;52.788;41.368;2022-08-21T12:11:05;41.00;34.25;28.25
65383;PMS5003;51986;52.788;41.368;2022-08-21T12:13:37;42.50;35.50;30.50
65383;PMS5003;51986;52.788;41.368;2022-08-21T12:16:09;41.50;35.00;30.00
65383;PMS5003;51986;52.788;41.368;2022-08-21T12:18:42;41.50;35.00;29.00
65383;PMS5003;51986;52.788;41.368;2022-08-21T12:23:57;41.00;34.00;29.00
65383;PMS5003;51986;52.788;41.368;2022-08-21T12:27:13;40.00;34.00;27.00
65383;PMS5003;51986;52.788;41.368;2022-08-21T12:29:48;40.75;34.00;28.75
65383;PMS5003;51986;52.788;41.368;2022-08-21T12:34:46;40.75;34.75;29.00
65383;PMS5003;51986;52.788;41.368;2022-08-21T12:37:22;41.00;34.50;28.00
65383;PMS5003;51986;52.788;41.368;2022-08-21T12:39:57;42.00;36.00;29.50
65383;PMS5003;51986;52.788;41.368;2022-08-21T12:42:36;41.00;35.00;29.00
65383;PMS5003;51986;52.788;41.368;2022-08-21T12:45:14;40.50;34.00;28.00
65383;PMS5003;51986;52.788;41.368;2022-08-21T12:50:41;43.50;35.75;29.50
65383;PMS5003;51986;52.788;41.368;2022-08-21T12:56:13;41.00;34.00;27.25
65383;PMS5003;51986;52.788;41.368;2022-08-21T12:58:47;40.50;34.25;28.00
65383;PMS5003;51986;52.788;41.368;2022-08-21T13:01:27;42.25;35.50;29.00
65383;PMS5003;51986;52.788;41.368;2022-08-21T13:04:11;43.00;36.00;29.00
65383;PMS5003;51986;52.788;41.368;2022-08-21T13:07:04;42.25;35.25;30.00
65383;PMS5003;51986;52.788;41.368;2022-08-21T13:09:35;41.00;34.00;28.00
65383;PMS5003;51986;52.788;41.368;2022-08-21T13:12:02;41.00;34.00;27.00
65383;PMS5003;51986;52.788;41.368;2022-08-21T13:14:34;40.75;34.00;28.75
65383;PMS5003;51986;52.788;41.368;2022-08-21T13:17:13;41.50;34.50;28.00
65383;PMS5003;51986;52.788;41.368;2022-08-21T13:19:55;40.00;34.00;27.00
65383;PMS5003;51986;52.788;41.368;2022-08-21T13:22:25;41.00;34.00;29.50
65383;PMS5003;51986;52.788;41.368;2022-08-21T13:25:00;41.00;34.50;29.00
65383;PMS5003;51986;52.788;41.368;2022-08-21T13:27:32;41.00;35.00;28.00
65383;PMS5003;51986;52.788;41.368;2022-08-21T13:30:19;40.00;34.25;27.00
65383;PMS5003;51986;52.788;41.368;2022-08-21T13:32:48;39.00;33.50;27.00
65383;PMS5003;51986;52.788;41.368;2022-08-21T13:35:25;39.75;34.00;27.00
65383;PMS5003;51986;52.788;41.368;2022-08-21T13:37:54;41.00;35.00;27.00
65383;PMS5003;51986;52.788;41.368;2022-08-21T13:40:30;41.00;35.00;29.00
65383;PMS5003;51986;52.788;41.368;2022-08-21T13:43:10;41.50;34.50;28.00
65383;PMS5003;51986;52.788;41.368;2022-08-21T13:45:50;41.00;35.00;28.00
65383;PMS5003;51986;52.788;41.368;2022-08-21T13:48:20;40.00;34.50;27.00
65383;PMS5003;51986;52.788;41.368;2022-08-21T13:51:21;41.00;34.00;27.00
65383;PMS5003;51986;52.788;41.368;2022-08-21T13:56:53;41.75;34.75;28.00
65383;PMS5003;51986;52.788;41.368;2022-08-21T13:59:28;43.00;36.00;29.00
65383;PMS5003;51986;52.788;41.368;2022-08-21T14:01:58;44.00;36.00;30.00
65383;PMS5003;51986;52.788;41.368;2022-08-21T14:04:29;49.50;39.75;33.25
65383;PMS5003;51986;52.788;41.368;2022-08-21T14:07:13;45.25;37.00;31.00
65383;PMS5003;51986;52.788;41.368;2022-08-21T14:09:47;41.00;35.00;30.00
65383;PMS5003;51986;52.788;41.368;2022-08-21T14:12:19;43.75;36.50;29.00
65383;PMS5003;51986;52.788;41.368;2022-08-21T14:14:53;43.00;36.00;30.00
65383;PMS5003;51986;52.788;41.368;2022-08-21T14:17:34;43.00;35.50;29.00
65383;PMS5003;51986;52.788;41.368;2022-08-21T14:20:05;43.00;35.00;30.00
65383;PMS5003;51986;52.788;41.368;2022-08-21T14:22:40;41.00;34.00;28.00
65383;PMS5003;51986;52.788;41.368;2022-08-21T14:25:10;41.00;34.50;28.25
65383;PMS5003;51986;52.788;41.368;2022-08-21T14:27:57;41.00;35.00;29.00
65383;PMS5003;51986;52.788;41.368;2022-08-21T14:30:45;41.25;35.00;29.00
65383;PMS5003;51986;52.788;41.368;2022-08-21T14:33:30;42.25;35.00;29.00
65383;PMS5003;51986;52.788;41.368;2022-08-21T14:35:59;44.00;37.00;30.00
65383;PMS5003;51986;52.788;41.368;2022-08-21T14:38:26;41.00;34.00;29.00
65383;PMS5003;51986;52.788;41.368;2022-08-21T14:40:56;41.00;35.00;28.75
65383;PMS5003;51986;52.788;41.368;2022-08-21T14:43:26;41.00;34.00;30.00
65383;PMS5003;51986;52.788;41.368;2022-08-21T14:45:54;40.50;34.50;29.00
65383;PMS5003;51986;52.788;41.368;2022-08-21T14:48:22;40.00;34.00;28.50
65383;PMS5003;51986;52.788;41.368;2022-08-21T14:50:49;40.00;34.00;28.00
65383;PMS5003;51986;52.788;41.368;2022-08-21T14:53:16;41.50;35.00;29.00
65383;PMS5003;51986;52.788;41.368;2022-08-21T14:55:43;39.25;33.00;27.00
65383;PMS5003;51986;52.788;41.368;2022-08-21T14:58:10;40.00;34.00;28.00
65383;PMS5003;51986;52.788;41.368;2022-08-21T15:00:37;43.00;35.75;30.00
65383;PMS5003;51986;52.788;41.368;2022-08-21T15:03:04;42.00;35.00;29.00
65383;PMS5003;51986;52.788;41.368;2022-08-21T15:05:32;40.00;34.00;28.00
65383;PMS5003;51986;52.788;41.368;2022-08-21T15:07:59;40.00;33.00;27.00
65383;PMS5003;51986;52.788;41.368;2022-08-21T15:10:27;41.00;34.50;28.25
65383;PMS5003;51986;52.788;41.368;2022-08-21T15:12:56;40.50;34.00;28.75
65383;PMS5003;51986;52.788;41.368;2022-08-21T15:15:24;41.00;34.00;28.00
65383;PMS5003;51986;52.788;41.368;2022-08-21T15:17:51;41.00;34.00;27.00
65383;PMS5003;51986;52.788;41.368;2022-08-21T15:20:37;40.00;33.00;27.00
65383;PMS5003;51986;52.788;41.368;2022-08-21T15:23:05;40.00;34.00;27.00
65383;PMS5003;51986;52.788;41.368;2022-08-21T15:25:41;40.25;34.00;27.25
65383;PMS5003;51986;52.788;41.368;2022-08-21T15:28:10;40.50;34.00;29.00
65383;PMS5003;51986;52.788;41.368;2022-08-21T15:30:39;40.50;34.00;27.00
65383;PMS5003;51986;52.788;41.368;2022-08-21T15:33:07;40.00;34.00;27.00
65383;PMS5003;51986;52.788;41.368;2022-08-21T15:35:37;39.00;34.00;27.00